sensor_id;sensor_type;location;lat;lon;timestamp;pressure;altitude;pressure_sealevel;temperature;humidity
51359;BME280;37448;51.588;7.248;2024-02-14T00:00:27;100875.00;;;7.29;98.37
51359;BME280;37448;51.588;7.248;2024-02-14T00:02:28;100865.50;;;7.30;100.00
51359;BME280;37448;51.588;7.248;2024-02-14T00:04:28;100862.91;;;7.28;99.39
51359;BME280;37448;51.588;7.248;2024-02-14T00:06:29;100864.63;;;7.29;98.36
51359;BME280;37448;51.588;7.248;2024-02-14T00:08:29;100864.63;;;7.32;99.92
51359;BME280;37448;51.588;7.248;2024-02-14T00:10:30;100861.19;;;7.29;99.42
51359;BME280;37448;51.588;7.248;2024-02-14T00:12:34;100862.88;;;7.31;100.00
51359;BME280;37448;51.588;7.248;2024-02-14T00:14:35;100863.78;;;7.29;98.97
51359;BME280;37448;51.588;7.248;2024-02-14T00:16:36;100856.00;;;7.29;99.27
51359;BME280;37448;51.588;7.248;2024-02-14T00:18:39;100859.44;;;7.26;100.00
51359;BME280;37448;51.588;7.248;2024-02-14T00:20:40;100852.53;;;7.25;100.00
51359;BME280;37448;51.588;7.248;2024-02-14T00:22:40;100860.31;;;7.25;100.00
51359;BME280;37448;51.588;7.248;2024-02-14T00:24:40;100856.84;;;7.23;100.00
51359;BME280;37448;51.588;7.248;2024-02-14T00:26:41;100856.00;;;7.21;100.00
51359;BME280;37448;51.588;7.248;2024-02-14T00:28:41;100849.06;;;7.20;100.00
51359;BME280;37448;51.588;7.248;2024-02-14T00:30:42;100849.91;;;7.21;100.00
51359;BME280;37448;51.588;7.248;2024-02-14T00:32:42;100849.06;;;7.20;100.00
51359;BME280;37448;51.588;7.248;2024-02-14T00:34:43;100849.94;;;7.17;100.00
51359;BME280;37448;51.588;7.248;2024-02-14T00:36:45;100849.91;;;7.21;100.00
51359;BME280;37448;51.588;7.248;2024-02-14T00:38:46;100845.63;;;7.18;100.00
51359;BME280;37448;51.588;7.248;2024-02-14T00:40:47;100849.06;;;7.17;100.00
51359;BME280;37448;51.588;7.248;2024-02-14T00:42:47;100850.81;;;7.18;100.00
51359;BME280;37448;51.588;7.248;2024-02-14T00:44:47;100850.81;;;7.15;100.00
51359;BME280;37448;51.588;7.248;2024-02-14T00:46:48;100846.47;;;7.17;100.00
51359;BME280;37448;51.588;7.248;2024-02-14T00:48:48;100847.34;;;7.16;100.00
51359;BME280;37448;51.588;7.248;2024-02-14T00:50:49;100840.44;;;7.18;100.00
51359;BME280;37448;51.588;7.248;2024-02-14T00:52:49;100842.16;;;7.16;100.00
51359;BME280;37448;51.588;7.248;2024-02-14T00:54:49;100836.97;;;7.16;100.00
51359;BME280;37448;51.588;7.248;2024-02-14T00:56:50;100837.81;;;7.16;100.00
51359;BME280;37448;51.588;7.248;2024-02-14T00:58:50;100839.56;;;7.16;100.00
51359;BME280;37448;51.588;7.248;2024-02-14T01:00:51;100829.19;;;7.17;100.00
51359;BME280;37448;51.588;7.248;2024-02-14T01:02:51;100824.88;;;7.15;100.00
51359;BME280;37448;51.588;7.248;2024-02-14T01:04:52;100822.28;;;7.15;100.00
51359;BME280;37448;51.588;7.248;2024-02-14T01:06:52;100817.94;;;7.12;100.00
51359;BME280;37448;51.588;7.248;2024-02-14T01:08:53;100824.84;;;7.12;100.00
51359;BME280;37448;51.588;7.248;2024-02-14T01:10:53;100824.84;;;7.12;100.00
51359;BME280;37448;51.588;7.248;2024-02-14T01:12:53;100819.66;;;7.12;100.00
51359;BME280;37448;51.588;7.248;2024-02-14T01:14:54;100818.81;;;7.10;100.00
51359;BME280;37448;51.588;7.248;2024-02-14T01:16:54;100812.75;;;7.11;100.00
51359;BME280;37448;51.588;7.248;2024-02-14T01:18:55;100816.22;;;7.10;100.00
51359;BME280;37448;51.588;7.248;2024-02-14T01:20:55;100812.75;;;7.11;100.00
51359;BME280;37448;51.588;7.248;2024-02-14T01:22:56;100798.94;;;7.06;100.00
51359;BME280;37448;51.588;7.248;2024-02-14T01:24:56;100809.28;;;7.09;100.00
51359;BME280;37448;51.588;7.248;2024-02-14T01:26:58;100804.13;;;7.10;100.00
51359;BME280;37448;51.588;7.248;2024-02-14T01:28:58;100803.25;;;7.11;100.00
51359;BME280;37448;51.588;7.248;2024-02-14T01:31:01;100809.28;;;7.09;100.00
51359;BME280;37448;51.588;7.248;2024-02-14T01:33:02;100805.81;;;7.13;100.00
51359;BME280;37448;51.588;7.248;2024-02-14T01:35:04;100799.78;;;7.11;100.00
51359;BME280;37448;51.588;7.248;2024-02-14T01:37:04;100804.97;;;7.12;100.00
51359;BME280;37448;51.588;7.248;2024-02-14T01:39:05;100804.09;;;7.12;100.00
51359;BME280;37448;51.588;7.248;2024-02-14T01:41:10;100804.09;;;7.12;100.00
51359;BME280;37448;51.588;7.248;2024-02-14T01:43:11;100799.81;;;7.09;100.00
51359;BME280;37448;51.588;7.248;2024-02-14T01:45:11;100803.25;;;7.08;100.00
51359;BME280;37448;51.588;7.248;2024-02-14T01:47:12;100792.00;;;7.11;100.00
51359;BME280;37448;51.588;7.248;2024-02-14T01:49:15;100792.88;;;7.10;100.00
51359;BME280;37448;51.588;7.248;2024-02-14T01:51:17;100793.75;;;7.09;100.00
51359;BME280;37448;51.588;7.248;2024-02-14T01:53:20;100789.41;;;7.08;100.00
51359;BME280;37448;51.588;7.248;2024-02-14T01:55:21;100795.47;;;7.07;100.00
51359;BME280;37448;51.588;7.248;2024-02-14T01:57:22;100786.81;;;7.08;100.00
51359;BME280;37448;51.588;7.248;2024-02-14T01:59:23;100782.50;;;7.10;100.00
51359;BME280;37448;51.588;7.248;2024-02-14T02:01:24;100785.97;;;7.10;100.00
51359;BME280;37448;51.588;7.248;2024-02-14T02:03:25;100778.19;;;7.09;100.00
51359;BME280;37448;51.588;7.248;2024-02-14T02:05:26;100783.34;;;7.12;100.00
51359;BME280;37448;51.588;7.248;2024-02-14T02:07:26;100779.03;;;7.11;100.00
51359;BME280;37448;51.588;7.248;2024-02-14T02:09:27;100773.84;;;7.11;100.00
51359;BME280;37448;51.588;7.248;2024-02-14T02:11:27;100778.16;;;7.12;100.00
51359;BME280;37448;51.588;7.248;2024-02-14T02:13:27;100793.72;;;7.12;100.00
51359;BME280;37448;51.588;7.248;2024-02-14T02:15:28;100784.22;;;7.14;100.00
51359;BME280;37448;51.588;7.248;2024-02-14T02:17:29;100783.38;;;7.13;100.00
51359;BME280;37448;51.588;7.248;2024-02-14T02:19:30;100776.44;;;7.15;100.00
51359;BME280;37448;51.588;7.248;2024-02-14T02:21:31;100774.75;;;7.16;100.00
51359;BME280;37448;51.588;7.248;2024-02-14T02:23:31;100776.44;;;7.15;100.00
51359;BME280;37448;51.588;7.248;2024-02-14T02:25:31;100783.38;;;7.18;100.00
51359;BME280;37448;51.588;7.248;2024-02-14T02:27:32;100783.38;;;7.18;100.00
51359;BME280;37448;51.588;7.248;2024-02-14T02:29:35;100776.44;;;7.18;100.00
51359;BME280;37448;51.588;7.248;2024-02-14T02:31:37;100780.78;;;7.21;100.00
51359;BME280;37448;51.588;7.248;2024-02-14T02:33:38;100773.84;;;7.25;100.00
51359;BME280;37448;51.588;7.248;2024-02-14T02:35:41;100779.88;;;7.24;100.00
51359;BME280;37448;51.588;7.248;2024-02-14T02:37:42;100783.34;;;7.27;100.00
51359;BME280;37448;51.588;7.248;2024-02-14T02:39:45;100770.38;;;7.26;100.00
51359;BME280;37448;51.588;7.248;2024-02-14T02:41:45;100779.03;;;7.25;100.00
51359;BME280;37448;51.588;7.248;2024-02-14T02:43:49;100772.97;;;7.26;100.00
51359;BME280;37448;51.588;7.248;2024-02-14T02:45:50;100769.53;;;7.25;100.00
51359;BME280;37448;51.588;7.248;2024-02-14T02:47:51;100776.44;;;7.29;100.00
51359;BME280;37448;51.588;7.248;2024-02-14T02:49:51;100781.63;;;7.29;100.00
51359;BME280;37448;51.588;7.248;2024-02-14T02:51:52;100777.31;;;7.30;100.00
51359;BME280;37448;51.588;7.248;2024-02-14T02:53:54;100776.41;;;7.32;100.00
51359;BME280;37448;51.588;7.248;2024-02-14T02:55:54;100770.38;;;7.34;100.00
51359;BME280;37448;51.588;7.248;2024-02-14T02:57:57;100769.53;;;7.33;100.00
51359;BME280;37448;51.588;7.248;2024-02-14T02:59:59;100771.22;;;7.36;100.00
51359;BME280;37448;51.588;7.248;2024-02-14T03:02:00;100765.19;;;7.38;100.00
51359;BME280;37448;51.588;7.248;2024-02-14T03:04:00;100772.09;;;7.38;100.00
51359;BME280;37448;51.588;7.248;2024-02-14T03:06:01;100768.63;;;7.39;100.00
51359;BME280;37448;51.588;7.248;2024-02-14T03:08:03;100767.78;;;7.40;100.00
51359;BME280;37448;51.588;7.248;2024-02-14T03:10:05;100771.25;;;7.42;100.00
51359;BME280;37448;51.588;7.248;2024-02-14T03:12:05;100768.63;;;7.45;100.00
51359;BME280;37448;51.588;7.248;2024-02-14T03:14:06;100763.41;;;7.46;100.00
51359;BME280;37448;51.588;7.248;2024-02-14T03:16:08;100766.91;;;7.44;100.00
51359;BME280;37448;51.588;7.248;2024-02-14T03:18:08;100769.50;;;7.47;100.00
51359;BME280;37448;51.588;7.248;2024-02-14T03:20:11;100776.38;;;7.51;100.00
51359;BME280;37448;51.588;7.248;2024-02-14T03:22:14;100775.53;;;7.49;100.00
51359;BME280;37448;51.588;7.248;2024-02-14T03:24:14;100766.00;;;7.51;100.00
51359;BME280;37448;51.588;7.248;2024-02-14T03:26:15;100768.59;;;7.54;100.00
51359;BME280;37448;51.588;7.248;2024-02-14T03:28:15;100761.69;;;7.55;100.00
51359;BME280;37448;51.588;7.248;2024-02-14T03:30:16;100764.25;;;7.56;100.00
51359;BME280;37448;51.588;7.248;2024-02-14T03:32:17;100769.44;;;7.56;100.00
51359;BME280;37448;51.588;7.248;2024-02-14T03:34:19;100761.69;;;7.58;100.00
51359;BME280;37448;51.588;7.248;2024-02-14T03:36:19;100766.00;;;7.59;100.00
51359;BME280;37448;51.588;7.248;2024-02-14T03:38:29;100764.25;;;7.59;100.00
51359;BME280;37448;51.588;7.248;2024-02-14T03:40:31;100765.13;;;7.63;100.00
51359;BME280;37448;51.588;7.248;2024-02-14T03:42:32;100769.44;;;7.63;100.00
51359;BME280;37448;51.588;7.248;2024-02-14T03:44:33;100766.00;;;7.64;100.00
51359;BME280;37448;51.588;7.248;2024-02-14T03:46:34;100764.25;;;7.66;100.00
51359;BME280;37448;51.588;7.248;2024-02-14T03:48:35;100760.81;;;7.64;100.00
51359;BME280;37448;51.588;7.248;2024-02-14T03:50:36;100771.19;;;7.64;100.00
51359;BME280;37448;51.588;7.248;2024-02-14T03:52:36;100767.69;;;7.61;100.00
51359;BME280;37448;51.588;7.248;2024-02-14T03:54:36;100765.09;;;7.66;100.00
51359;BME280;37448;51.588;7.248;2024-02-14T03:56:37;100769.44;;;7.63;100.00
51359;BME280;37448;51.588;7.248;2024-02-14T03:58:38;100770.28;;;7.61;100.00
51359;BME280;37448;51.588;7.248;2024-02-14T04:00:39;100764.28;;;7.58;100.00
51359;BME280;37448;51.588;7.248;2024-02-14T04:02:39;100765.13;;;7.60;100.00
51359;BME280;37448;51.588;7.248;2024-02-14T04:04:43;100765.97;;;7.60;100.00
51359;BME280;37448;51.588;7.248;2024-02-14T04:06:44;100774.66;;;7.58;100.00
51359;BME280;37448;51.588;7.248;2024-02-14T04:08:45;100763.41;;;7.56;100.00
51359;BME280;37448;51.588;7.248;2024-02-14T04:10:46;100763.41;;;7.59;100.00
51359;BME280;37448;51.588;7.248;2024-02-14T04:12:47;100766.84;;;7.59;100.00
51359;BME280;37448;51.588;7.248;2024-02-14T04:14:47;100778.97;;;7.59;100.00
51359;BME280;37448;51.588;7.248;2024-02-14T04:16:48;100770.31;;;7.58;100.00
51359;BME280;37448;51.588;7.248;2024-02-14T04:18:49;100771.16;;;7.60;100.00
51359;BME280;37448;51.588;7.248;2024-02-14T04:20:49;100783.28;;;7.61;100.00
51359;BME280;37448;51.588;7.248;2024-02-14T04:22:49;100776.38;;;7.64;100.00
51359;BME280;37448;51.588;7.248;2024-02-14T04:24:50;100786.75;;;7.64;100.00
51359;BME280;37448;51.588;7.248;2024-02-14T04:26:53;100778.09;;;7.65;100.00
51359;BME280;37448;51.588;7.248;2024-02-14T04:28:55;100779.81;;;7.67;100.00
51359;BME280;37448;51.588;7.248;2024-02-14T04:30:55;100784.13;;;7.68;100.00
51359;BME280;37448;51.588;7.248;2024-02-14T04:32:56;100785.00;;;7.72;100.00
51359;BME280;37448;51.588;7.248;2024-02-14T04:34:58;100787.56;;;7.73;100.00
51359;BME280;37448;51.588;7.248;2024-02-14T04:36:58;100777.19;;;7.75;100.00
51359;BME280;37448;51.588;7.248;2024-02-14T04:38:59;100788.44;;;7.74;100.00
51359;BME280;37448;51.588;7.248;2024-02-14T04:40:59;100776.31;;;7.76;100.00
51359;BME280;37448;51.588;7.248;2024-02-14T04:43:00;100779.78;;;7.75;100.00
51359;BME280;37448;51.588;7.248;2024-02-14T04:45:00;100784.97;;;7.78;100.00
51359;BME280;37448;51.588;7.248;2024-02-14T04:47:01;100788.41;;;7.80;100.00
51359;BME280;37448;51.588;7.248;2024-02-14T04:49:02;100788.41;;;7.80;100.00
51359;BME280;37448;51.588;7.248;2024-02-14T04:51:05;100795.34;;;7.83;100.00
51359;BME280;37448;51.588;7.248;2024-02-14T04:53:05;100785.81;;;7.83;100.00
51359;BME280;37448;51.588;7.248;2024-02-14T04:55:08;100787.56;;;7.83;100.00
51359;BME280;37448;51.588;7.248;2024-02-14T04:57:08;100789.28;;;7.84;100.00
51359;BME280;37448;51.588;7.248;2024-02-14T04:59:09;100797.03;;;7.85;100.00
51359;BME280;37448;51.588;7.248;2024-02-14T05:01:09;100791.88;;;7.88;100.00
51359;BME280;37448;51.588;7.248;2024-02-14T05:03:10;100784.06;;;7.92;100.00
51359;BME280;37448;51.588;7.248;2024-02-14T05:05:10;100795.31;;;7.94;100.00
51359;BME280;37448;51.588;7.248;2024-02-14T05:07:11;100790.97;;;7.93;100.00
51359;BME280;37448;51.588;7.248;2024-02-14T05:09:11;100784.88;;;7.95;100.00
51359;BME280;37448;51.588;7.248;2024-02-14T05:11:12;100790.97;;;7.96;100.00
51359;BME280;37448;51.588;7.248;2024-02-14T05:13:12;100790.06;;;8.00;100.00
51359;BME280;37448;51.588;7.248;2024-02-14T05:15:15;100797.00;;;8.01;100.00
51359;BME280;37448;51.588;7.248;2024-02-14T05:17:15;100793.53;;;8.03;100.00
51359;BME280;37448;51.588;7.248;2024-02-14T05:19:16;100798.72;;;8.02;100.00
51359;BME280;37448;51.588;7.248;2024-02-14T05:21:19;100802.16;;;8.04;100.00
51359;BME280;37448;51.588;7.248;2024-02-14T05:23:20;100809.97;;;8.04;100.00
51359;BME280;37448;51.588;7.248;2024-02-14T05:25:20;100805.63;;;8.06;100.00
51359;BME280;37448;51.588;7.248;2024-02-14T05:27:21;100807.34;;;8.07;100.00
51359;BME280;37448;51.588;7.248;2024-02-14T05:29:21;100812.53;;;8.09;100.00
51359;BME280;37448;51.588;7.248;2024-02-14T05:31:22;100803.88;;;8.08;100.00
51359;BME280;37448;51.588;7.248;2024-02-14T05:33:23;100809.94;;;8.10;100.00
51359;BME280;37448;51.588;7.248;2024-02-14T05:35:23;100816.88;;;8.14;100.00
51359;BME280;37448;51.588;7.248;2024-02-14T05:37:24;100814.25;;;8.14;100.00
51359;BME280;37448;51.588;7.248;2024-02-14T05:39:24;100807.31;;;8.16;100.00
51359;BME280;37448;51.588;7.248;2024-02-14T05:41:25;100818.59;;;8.15;100.00
51359;BME280;37448;51.588;7.248;2024-02-14T05:43:25;100828.09;;;8.20;100.00
51359;BME280;37448;51.588;7.248;2024-02-14T05:45:26;100829.78;;;8.22;100.00
51359;BME280;37448;51.588;7.248;2024-02-14T05:47:28;100826.31;;;8.23;100.00
51359;BME280;37448;51.588;7.248;2024-02-14T05:49:28;100827.19;;;8.24;100.00
51359;BME280;37448;51.588;7.248;2024-02-14T05:51:28;100826.31;;;8.25;100.00
51359;BME280;37448;51.588;7.248;2024-02-14T05:53:29;100828.06;;;8.23;100.00
51359;BME280;37448;51.588;7.248;2024-02-14T05:55:29;100833.25;;;8.23;100.00
51359;BME280;37448;51.588;7.248;2024-02-14T05:57:29;100829.78;;;8.24;100.00
51359;BME280;37448;51.588;7.248;2024-02-14T05:59:30;100831.53;;;8.25;100.00
51359;BME280;37448;51.588;7.248;2024-02-14T06:01:30;100835.84;;;8.26;100.00
51359;BME280;37448;51.588;7.248;2024-02-14T06:03:31;100830.66;;;8.26;100.00
51359;BME280;37448;51.588;7.248;2024-02-14T06:05:31;100833.22;;;8.29;100.00
51359;BME280;37448;51.588;7.248;2024-02-14T06:07:31;100828.06;;;8.27;100.00
51359;BME280;37448;51.588;7.248;2024-02-14T06:09:32;100822.84;;;8.29;100.00
51359;BME280;37448;51.588;7.248;2024-02-14T06:11:32;100835.81;;;8.29;100.00
51359;BME280;37448;51.588;7.248;2024-02-14T06:13:33;100838.44;;;8.27;100.00
51359;BME280;37448;51.588;7.248;2024-02-14T06:15:34;100837.56;;;8.27;100.00
51359;BME280;37448;51.588;7.248;2024-02-14T06:17:34;100828.91;;;8.28;100.00
51359;BME280;37448;51.588;7.248;2024-02-14T06:19:35;100839.28;;;8.28;100.00
51359;BME280;37448;51.588;7.248;2024-02-14T06:21:36;100838.41;;;8.29;100.00
51359;BME280;37448;51.588;7.248;2024-02-14T06:23:36;100846.22;;;8.30;100.00
51359;BME280;37448;51.588;7.248;2024-02-14T06:25:38;100844.50;;;8.29;100.00
51359;BME280;37448;51.588;7.248;2024-02-14T06:27:39;100847.09;;;8.29;100.00
51359;BME280;37448;51.588;7.248;2024-02-14T06:29:43;100851.41;;;8.29;100.00
51359;BME280;37448;51.588;7.248;2024-02-14T06:31:43;100860.94;;;8.30;100.00
51359;BME280;37448;51.588;7.248;2024-02-14T06:33:44;100857.47;;;8.31;100.00
51359;BME280;37448;51.588;7.248;2024-02-14T06:35:44;100849.69;;;8.32;100.00
51359;BME280;37448;51.588;7.248;2024-02-14T06:37:45;100856.59;;;8.33;100.00
51359;BME280;37448;51.588;7.248;2024-02-14T06:39:45;100848.81;;;8.33;100.00
51359;BME280;37448;51.588;7.248;2024-02-14T06:41:46;100858.31;;;8.38;100.00
51359;BME280;37448;51.588;7.248;2024-02-14T06:43:50;100861.78;;;8.37;100.00
51359;BME280;37448;51.588;7.248;2024-02-14T06:45:50;100853.97;;;8.41;100.00
51359;BME280;37448;51.588;7.248;2024-02-14T06:47:51;100856.56;;;8.41;100.00
51359;BME280;37448;51.588;7.248;2024-02-14T06:49:51;100862.63;;;8.40;100.00
51359;BME280;37448;51.588;7.248;2024-02-14T06:51:51;100879.94;;;8.43;100.00
51359;BME280;37448;51.588;7.248;2024-02-14T06:53:52;100873.00;;;8.43;100.00
51359;BME280;37448;51.588;7.248;2024-02-14T06:55:52;100866.06;;;8.45;100.00
51359;BME280;37448;51.588;7.248;2024-02-14T06:57:53;100876.47;;;8.45;100.00
51359;BME280;37448;51.588;7.248;2024-02-14T06:59:54;100874.75;;;8.44;100.00
51359;BME280;37448;51.588;7.248;2024-02-14T07:01:54;100872.13;;;8.46;100.00
51359;BME280;37448;51.588;7.248;2024-02-14T07:03:55;100888.59;;;8.46;100.00
51359;BME280;37448;51.588;7.248;2024-02-14T07:05:55;100888.59;;;8.46;100.00
51359;BME280;37448;51.588;7.248;2024-02-14T07:07:56;100884.25;;;8.50;100.00
51359;BME280;37448;51.588;7.248;2024-02-14T07:09:57;100878.16;;;8.50;100.00
51359;BME280;37448;51.588;7.248;2024-02-14T07:11:57;100886.81;;;8.52;100.00
51359;BME280;37448;51.588;7.248;2024-02-14T07:13:58;100891.16;;;8.50;100.00
51359;BME280;37448;51.588;7.248;2024-02-14T07:15:58;100886.84;;;8.49;100.00
51359;BME280;37448;51.588;7.248;2024-02-14T07:17:59;100892.03;;;8.52;100.00
51359;BME280;37448;51.588;7.248;2024-02-14T07:20:00;100897.22;;;8.52;100.00
51359;BME280;37448;51.588;7.248;2024-02-14T07:22:01;100899.81;;;8.53;100.00
51359;BME280;37448;51.588;7.248;2024-02-14T07:24:05;100900.66;;;8.57;100.00
51359;BME280;37448;51.588;7.248;2024-02-14T07:26:05;100899.81;;;8.53;100.00
51359;BME280;37448;51.588;7.248;2024-02-14T07:28:06;100900.66;;;8.54;100.00
51359;BME280;37448;51.588;7.248;2024-02-14T07:30:06;100905.00;;;8.55;100.00
51359;BME280;37448;51.588;7.248;2024-02-14T07:32:07;100907.59;;;8.55;100.00
51359;BME280;37448;51.588;7.248;2024-02-14T07:34:07;100906.72;;;8.56;100.00
51359;BME280;37448;51.588;7.248;2024-02-14T07:36:08;100905.88;;;8.55;100.00
51359;BME280;37448;51.588;7.248;2024-02-14T07:38:09;100911.91;;;8.56;100.00
51359;BME280;37448;51.588;7.248;2024-02-14T07:40:10;100905.88;;;8.55;100.00
51359;BME280;37448;51.588;7.248;2024-02-14T07:42:11;100906.72;;;8.56;100.00
51359;BME280;37448;51.588;7.248;2024-02-14T07:44:11;100905.84;;;8.57;100.00
51359;BME280;37448;51.588;7.248;2024-02-14T07:46:19;100911.06;;;8.58;100.00
51359;BME280;37448;51.588;7.248;2024-02-14T07:48:20;100909.31;;;8.59;100.00
51359;BME280;37448;51.588;7.248;2024-02-14T07:50:22;100911.91;;;8.62;100.00
51359;BME280;37448;51.588;7.248;2024-02-14T07:52:22;100909.31;;;8.62;100.00
51359;BME280;37448;51.588;7.248;2024-02-14T07:54:23;100911.91;;;8.60;100.00
51359;BME280;37448;51.588;7.248;2024-02-14T07:56:23;100919.69;;;8.65;100.00
51359;BME280;37448;51.588;7.248;2024-02-14T07:58:24;100918.81;;;8.65;100.00
51359;BME280;37448;51.588;7.248;2024-02-14T08:00:24;100923.16;;;8.67;100.00
51359;BME280;37448;51.588;7.248;2024-02-14T08:02:25;100919.69;;;8.65;100.00
51359;BME280;37448;51.588;7.248;2024-02-14T08:04:27;100917.94;;;8.66;100.00
51359;BME280;37448;51.588;7.248;2024-02-14T08:06:28;100912.78;;;8.64;100.00
51359;BME280;37448;51.588;7.248;2024-02-14T08:08:28;100922.25;;;8.67;100.00
51359;BME280;37448;51.588;7.248;2024-02-14T08:10:28;100919.69;;;8.65;100.00
51359;BME280;37448;51.588;7.248;2024-02-14T08:12:29;100924.88;;;8.68;100.00
51359;BME280;37448;51.588;7.248;2024-02-14T08:14:30;100927.44;;;8.70;100.00
51359;BME280;37448;51.588;7.248;2024-02-14T08:16:31;100920.53;;;8.70;100.00
51359;BME280;37448;51.588;7.248;2024-02-14T08:18:31;100925.72;;;8.72;100.00
51359;BME280;37448;51.588;7.248;2024-02-14T08:20:31;100919.66;;;8.73;100.00
51359;BME280;37448;51.588;7.248;2024-02-14T08:22:32;100917.91;;;8.73;100.00
51359;BME280;37448;51.588;7.248;2024-02-14T08:24:32;100926.59;;;8.74;100.00
51359;BME280;37448;51.588;7.248;2024-02-14T08:26:33;100925.72;;;8.75;100.00
51359;BME280;37448;51.588;7.248;2024-02-14T08:28:33;100921.34;;;8.79;100.00
51359;BME280;37448;51.588;7.248;2024-02-14T08:30:34;100926.53;;;8.79;100.00
51359;BME280;37448;51.588;7.248;2024-02-14T08:32:35;100930.00;;;8.81;100.00
51359;BME280;37448;51.588;7.248;2024-02-14T08:34:35;100931.72;;;8.82;100.00
51359;BME280;37448;51.588;7.248;2024-02-14T08:36:36;100935.19;;;8.84;100.00
51359;BME280;37448;51.588;7.248;2024-02-14T08:38:40;100933.44;;;8.83;100.00
51359;BME280;37448;51.588;7.248;2024-02-14T08:40:41;100934.31;;;8.86;100.00
51359;BME280;37448;51.588;7.248;2024-02-14T08:42:41;100926.50;;;8.88;100.00
51359;BME280;37448;51.588;7.248;2024-02-14T08:44:42;100933.44;;;8.89;100.00
51359;BME280;37448;51.588;7.248;2024-02-14T08:46:42;100930.84;;;8.89;100.00
51359;BME280;37448;51.588;7.248;2024-02-14T08:48:44;100935.16;;;8.90;100.00
51359;BME280;37448;51.588;7.248;2024-02-14T08:50:49;100940.38;;;8.90;100.00
51359;BME280;37448;51.588;7.248;2024-02-14T08:52:49;100931.66;;;8.93;100.00
51359;BME280;37448;51.588;7.248;2024-02-14T08:54:49;100928.19;;;8.97;100.00
51359;BME280;37448;51.588;7.248;2024-02-14T08:56:50;100942.91;;;8.96;100.00
51359;BME280;37448;51.588;7.248;2024-02-14T08:58:55;100941.19;;;8.97;100.00
51359;BME280;37448;51.588;7.248;2024-02-14T09:00:55;100942.91;;;8.99;100.00
51359;BME280;37448;51.588;7.248;2024-02-14T09:02:56;100943.75;;;9.01;100.00
51359;BME280;37448;51.588;7.248;2024-02-14T09:04:56;100957.63;;;9.00;100.00
51359;BME280;37448;51.588;7.248;2024-02-14T09:06:57;100948.94;;;9.01;100.00
51359;BME280;37448;51.588;7.248;2024-02-14T09:08:57;100952.41;;;9.03;100.00
51359;BME280;37448;51.588;7.248;2024-02-14T09:10:58;100957.63;;;9.05;100.00
51359;BME280;37448;51.588;7.248;2024-02-14T09:12:59;100952.38;;;9.07;100.00
51359;BME280;37448;51.588;7.248;2024-02-14T09:15:01;100951.50;;;9.08;100.00
51359;BME280;37448;51.588;7.248;2024-02-14T09:17:02;100955.84;;;9.10;100.00
51359;BME280;37448;51.588;7.248;2024-02-14T09:19:02;100952.41;;;9.10;100.00
51359;BME280;37448;51.588;7.248;2024-02-14T09:21:03;100950.63;;;9.13;100.00
51359;BME280;37448;51.588;7.248;2024-02-14T09:23:05;100954.06;;;9.17;100.00
51359;BME280;37448;51.588;7.248;2024-02-14T09:25:08;100948.91;;;9.14;100.00
51359;BME280;37448;51.588;7.248;2024-02-14T09:27:09;100954.06;;;9.17;100.00
51359;BME280;37448;51.588;7.248;2024-02-14T09:29:10;100952.31;;;9.19;100.00
51359;BME280;37448;51.588;7.248;2024-02-14T09:31:11;100957.53;;;9.19;100.00
51359;BME280;37448;51.588;7.248;2024-02-14T09:33:12;100966.16;;;9.24;100.00
51359;BME280;37448;51.588;7.248;2024-02-14T09:35:13;100962.69;;;9.25;100.00
51359;BME280;37448;51.588;7.248;2024-02-14T09:37:13;100956.56;;;9.31;100.00
51359;BME280;37448;51.588;7.248;2024-02-14T09:39:13;100971.31;;;9.30;100.00
51359;BME280;37448;51.588;7.248;2024-02-14T09:41:36;100967.84;;;9.31;100.00
51359;BME280;37448;51.588;7.248;2024-02-14T09:43:43;100958.28;;;9.35;100.00
51359;BME280;37448;51.588;7.248;2024-02-14T09:45:44;100953.09;;;9.32;100.00
51359;BME280;37448;51.588;7.248;2024-02-14T09:47:45;100972.13;;;9.37;100.00
51359;BME280;37448;51.588;7.248;2024-02-14T09:49:46;100971.28;;;9.40;100.00
51359;BME280;37448;51.588;7.248;2024-02-14T09:51:48;100974.75;;;9.39;100.00
51359;BME280;37448;51.588;7.248;2024-02-14T09:53:50;100962.59;;;9.38;100.00
51359;BME280;37448;51.588;7.248;2024-02-14T09:55:50;100969.53;;;9.39;100.00
51359;BME280;37448;51.588;7.248;2024-02-14T09:57:51;100975.59;;;9.39;100.00
51359;BME280;37448;51.588;7.248;2024-02-14T09:59:53;100971.28;;;9.40;100.00
51359;BME280;37448;51.588;7.248;2024-02-14T10:01:53;100975.63;;;9.38;100.00
51359;BME280;37448;51.588;7.248;2024-02-14T10:03:54;100973.03;;;9.38;100.00
51359;BME280;37448;51.588;7.248;2024-02-14T10:05:55;100978.25;;;9.35;100.00
51359;BME280;37448;51.588;7.248;2024-02-14T10:07:56;100979.97;;;9.36;100.00
51359;BME280;37448;51.588;7.248;2024-02-14T10:10:05;100981.72;;;9.32;100.00
51359;BME280;37448;51.588;7.248;2024-02-14T10:12:06;100984.34;;;9.33;100.00
51359;BME280;37448;51.588;7.248;2024-02-14T10:14:09;100988.66;;;9.33;100.00
51359;BME280;37448;51.588;7.248;2024-02-14T10:16:12;100988.66;;;9.31;100.00
51359;BME280;37448;51.588;7.248;2024-02-14T10:18:14;100989.53;;;9.30;100.00
51359;BME280;37448;51.588;7.248;2024-02-14T10:20:17;100986.06;;;9.31;100.00
51359;BME280;37448;51.588;7.248;2024-02-14T10:22:18;100992.13;;;9.30;100.00
51359;BME280;37448;51.588;7.248;2024-02-14T10:24:18;100986.06;;;9.31;100.00
51359;BME280;37448;51.588;7.248;2024-02-14T10:26:20;100989.53;;;9.32;100.00
51359;BME280;37448;51.588;7.248;2024-02-14T10:28:21;100984.34;;;9.29;100.00
51359;BME280;37448;51.588;7.248;2024-02-14T10:30:21;100981.72;;;9.30;100.00
51359;BME280;37448;51.588;7.248;2024-02-14T10:32:22;100988.66;;;9.31;100.00